createdAt,value
2023-01-03T00:04:37.953Z,81.23
2023-01-03T00:09:42.627Z,82.12
2023-01-03T00:14:45.541Z,80.75
2023-01-03T00:19:48.913Z,81.40
2023-01-03T00:24:54.416Z,81.68
2023-01-03T00:29:57.369Z,81.58
2023-01-03T00:35:04.778Z,81.42
2023-01-03T00:40:11.286Z,82.08
2023-01-03T00:45:19.752Z,81.82
2023-01-03T00:50:23.257Z,80.87
2023-01-03T00:55:27.531Z,82.02
2023-01-03T01:00:30.636Z,81.80
2023-01-03T01:05:33.700Z,81.21
2023-01-03T01:10:42.796Z,80.76
2023-01-03T01:15:45.735Z,81.61
2023-01-03T01:20:48.763Z,81.20
2023-01-03T01:25:53.063Z,80.28
2023-01-03T01:30:58.654Z,80.22
2023-01-03T01:36:07.096Z,80.95
2023-01-03T01:41:14.619Z,80.04
2023-01-03T01:46:23.933Z,79.99
2023-01-03T01:51:30.843Z,80.54
2023-01-03T01:56:39.012Z,79.43
2023-01-03T02:01:45.666Z,78.44
2023-01-03T02:06:49.397Z,78.10
2023-01-03T02:12:12.136Z,79.29
2023-01-03T02:17:26.956Z,78.61
2023-01-03T02:22:53.082Z,79.15
2023-01-03T02:28:26.564Z,77.60
2023-01-03T02:33:37.468Z,78.75
2023-01-03T02:38:49.749Z,78.56
2023-01-03T02:43:57.461Z,78.00
2023-01-03T02:49:08.487Z,77.81
2023-01-03T02:54:16.525Z,77.80
2023-01-03T02:59:24.498Z,77.72
2023-01-03T03:04:29.503Z,78.02
2023-01-03T03:09:32.428Z,77.47
2023-01-03T03:14:40.072Z,77.95
2023-01-03T03:20:06.195Z,77.36
2023-01-03T03:25:16.268Z,77.90
2023-01-03T03:30:24.609Z,76.45
2023-01-03T03:35:32.470Z,77.04
2023-01-03T03:40:57.832Z,77.76
2023-01-03T03:46:06.505Z,76.23
2023-01-03T03:51:19.007Z,76.49
2023-01-03T03:56:28.281Z,75.35
2023-01-03T04:01:31.982Z,75.27
2023-01-03T04:06:40.311Z,75.98
2023-01-03T04:11:43.439Z,75.90
2023-01-03T04:16:46.363Z,75.01
2023-01-03T04:21:50.697Z,75.26
2023-01-03T04:26:53.600Z,74.63
2023-01-03T04:31:56.544Z,74.77
2023-01-03T04:37:00.817Z,74.38
2023-01-03T04:42:23.709Z,74.09
2023-01-03T04:47:26.574Z,74.33
2023-01-03T04:52:31.307Z,74.87
2023-01-03T04:57:34.229Z,74.99
2023-01-03T05:02:37.136Z,74.07
2023-01-03T05:07:41.402Z,74.11
2023-01-03T05:12:59.675Z,73.95
2023-01-03T05:18:02.702Z,73.90
2023-01-03T05:23:24.665Z,72.83
2023-01-03T05:28:27.690Z,73.67
2023-01-03T05:33:30.885Z,73.34
2023-01-03T05:38:37.356Z,74.11
2023-01-03T05:43:40.307Z,73.54
2023-01-03T05:48:43.168Z,74.58
2023-01-03T05:53:47.416Z,73.35
2023-01-03T05:58:50.301Z,73.91
2023-01-03T06:03:53.902Z,74.29
2023-01-03T06:08:58.181Z,73.79
2023-01-03T06:14:02.236Z,74.88
2023-01-03T06:19:06.756Z,73.72
2023-01-03T06:24:11.378Z,74.00
2023-01-03T06:29:14.265Z,73.29
2023-01-03T06:34:17.397Z,73.54
2023-01-03T06:39:21.646Z,73.39
2023-01-03T06:44:24.540Z,73.62
2023-01-03T06:49:44.956Z,74.59
2023-01-03T06:54:49.511Z,74.81
2023-01-03T06:59:52.387Z,74.79
2023-01-03T07:04:55.329Z,75.30
2023-01-03T07:09:59.668Z,75.67
2023-01-03T07:15:02.654Z,75.26
2023-01-03T07:20:06.203Z,75.24
2023-01-03T07:25:11.012Z,75.85
2023-01-03T07:30:14.622Z,76.29
2023-01-03T07:35:17.774Z,75.48
2023-01-03T07:40:22.122Z,75.84
2023-01-03T07:45:24.978Z,76.44
2023-01-03T07:50:28.166Z,75.83
2023-01-03T07:55:35.329Z,75.35
2023-01-03T08:00:38.531Z,75.64
2023-01-03T08:05:41.469Z,76.02
2023-01-03T08:11:03.152Z,76.52
2023-01-03T08:16:06.643Z,75.51
2023-01-03T08:21:11.317Z,73.67
2023-01-03T08:26:17.718Z,74.13
2023-01-03T08:31:23.214Z,74.53
2023-01-03T08:36:28.137Z,74.46
2023-01-03T08:41:35.824Z,74.78
2023-01-03T08:46:42.205Z,74.48
2023-01-03T08:51:45.106Z,73.58
2023-01-03T08:56:49.374Z,73.74
2023-01-03T09:01:52.426Z,73.79
2023-01-03T09:06:55.577Z,73.42
2023-01-03T09:11:59.806Z,71.98
2023-01-03T09:17:02.728Z,71.65
2023-01-03T09:22:05.686Z,71.94
2023-01-03T09:27:09.972Z,71.21
2023-01-03T09:32:13.000Z,70.80
2023-01-03T09:37:15.958Z,69.87
2023-01-03T09:42:41.116Z,69.24
2023-01-03T09:47:44.959Z,68.85
2023-01-03T09:53:06.313Z,68.21
2023-01-03T09:58:33.062Z,68.46
2023-01-03T10:03:52.890Z,66.15
2023-01-03T10:09:07.865Z,65.62
2023-01-03T10:14:26.817Z,65.90
2023-01-03T10:20:02.407Z,65.82
2023-01-03T10:25:13.584Z,64.62
2023-01-03T10:30:21.209Z,63.48
2023-01-03T10:35:26.102Z,63.55
2023-01-03T10:40:36.788Z,63.79
2023-01-03T10:45:54.431Z,62.62
2023-01-03T10:50:57.411Z,62.67
2023-01-03T10:56:03.249Z,62.31
2023-01-03T11:01:23.240Z,62.73
2023-01-03T11:06:26.279Z,62.56
2023-01-03T11:11:32.722Z,63.69
2023-01-03T11:16:37.141Z,63.36
2023-01-03T11:21:46.951Z,64.01
2023-01-03T11:26:52.879Z,63.84
2023-01-03T11:32:07.664Z,64.33
2023-01-03T11:37:22.310Z,63.69
2023-01-03T11:42:40.089Z,63.49
2023-01-03T11:47:52.228Z,63.29
2023-01-03T11:53:00.391Z,64.12
2023-01-03T11:58:22.041Z,63.73
2023-01-03T12:03:40.149Z,62.63
2023-01-03T12:08:52.221Z,62.25
2023-01-03T12:14:04.885Z,61.33
2023-01-03T12:19:21.579Z,61.98
2023-01-03T12:24:34.062Z,61.82
2023-01-03T12:29:49.641Z,61.39
2023-01-03T12:35:12.725Z,63.02
2023-01-03T12:40:22.991Z,63.56
2023-01-03T12:45:42.612Z,63.67
2023-01-03T12:50:50.531Z,63.55
2023-01-03T12:56:11.468Z,64.17
2023-01-03T13:01:19.196Z,64.45
2023-01-03T13:06:26.641Z,65.50
2023-01-03T13:11:34.529Z,66.27
2023-01-03T13:16:46.502Z,66.69
2023-01-03T13:22:04.344Z,66.57
2023-01-03T13:27:34.790Z,66.58
2023-01-03T13:32:49.247Z,67.18
2023-01-03T13:37:54.876Z,66.28
2023-01-03T13:43:14.080Z,66.47
2023-01-03T13:48:19.386Z,65.94
2023-01-03T13:53:33.029Z,67.11
2023-01-03T13:58:44.421Z,67.05
2023-01-03T14:04:14.108Z,66.81
2023-01-03T14:09:34.413Z,67.77
2023-01-03T14:14:40.651Z,67.81
2023-01-03T14:19:50.926Z,67.65
2023-01-03T14:24:57.605Z,67.85
2023-01-03T14:30:01.904Z,67.99
2023-01-03T14:35:05.751Z,67.81
2023-01-03T14:40:20.645Z,67.77
2023-01-03T14:45:23.606Z,68.46
2023-01-03T14:50:29.453Z,68.71
2023-01-03T14:55:34.981Z,68.36
2023-01-03T15:00:39.446Z,69.73
2023-01-03T15:05:43.573Z,69.27
2023-01-03T15:10:50.757Z,68.95
2023-01-03T15:15:55.858Z,69.46
2023-01-03T15:21:01.513Z,70.18
2023-01-03T15:26:06.790Z,71.58
2023-01-03T15:31:28.588Z,71.26
2023-01-03T15:36:33.333Z,71.77
2023-01-03T15:42:34.696Z,71.90
2023-01-03T15:47:24.622Z,71.22
2023-01-03T15:52:28.042Z,70.00
2023-01-03T15:57:33.073Z,70.66
2023-01-03T16:02:36.370Z,70.66
2023-01-03T16:07:40.513Z,70.95
2023-01-03T16:12:45.197Z,71.52
2023-01-03T16:17:49.912Z,70.86
2023-01-03T16:23:00.862Z,72.18
2023-01-03T16:28:12.114Z,71.87
2023-01-03T16:33:20.866Z,72.22
2023-01-03T16:38:25.606Z,71.42
2023-01-03T16:43:30.040Z,70.78
2023-01-03T16:48:39.194Z,71.62
2023-01-03T16:53:42.790Z,72.89
2023-01-03T16:58:47.439Z,72.18
2023-01-03T17:03:50.960Z,71.54
2023-01-03T17:08:54.050Z,71.99
2023-01-03T17:14:02.589Z,71.93
2023-01-03T17:19:05.637Z,72.53
2023-01-03T17:24:14.432Z,72.27
2023-01-03T17:29:21.675Z,72.15
2023-01-03T17:34:27.134Z,71.13
2023-01-03T17:39:30.152Z,71.91
2023-01-03T17:44:34.989Z,71.96
2023-01-03T17:49:38.206Z,72.46
2023-01-03T17:54:42.181Z,71.36
2023-01-03T17:59:46.972Z,72.07
2023-01-03T18:05:15.098Z,71.15
2023-01-03T18:10:18.531Z,71.09
2023-01-03T18:15:23.327Z,71.11
2023-01-03T18:20:28.034Z,71.65
2023-01-03T18:25:31.859Z,71.92
2023-01-03T18:30:36.307Z,71.78
2023-01-03T18:35:40.457Z,71.13
2023-01-03T18:40:43.685Z,71.16
2023-01-03T18:45:48.478Z,71.62
2023-01-03T18:50:58.883Z,71.42
2023-01-03T18:56:03.028Z,71.22
2023-01-03T19:01:08.310Z,71.55
2023-01-03T19:06:18.042Z,71.05
2023-01-03T19:11:28.548Z,72.13
2023-01-03T19:16:34.592Z,71.93
2023-01-03T19:21:39.778Z,71.94
2023-01-03T19:26:46.741Z,72.62
2023-01-03T19:31:53.242Z,73.97
2023-01-03T19:36:56.237Z,72.35
2023-01-03T19:42:18.322Z,73.42
2023-01-03T19:47:22.609Z,73.50
2023-01-03T19:52:25.833Z,71.47
2023-01-03T19:57:34.002Z,72.64
2023-01-03T20:02:41.435Z,72.74
2023-01-03T20:07:45.091Z,72.74
2023-01-03T20:12:49.306Z,73.20
2023-01-03T20:17:54.213Z,73.20
2023-01-03T20:23:05.064Z,73.31
2023-01-03T20:28:16.529Z,72.40
2023-01-03T20:33:20.787Z,72.70
2023-01-03T20:38:27.619Z,72.73
2023-01-03T20:43:30.624Z,72.41
2023-01-03T20:48:34.965Z,72.48
2023-01-03T20:53:42.659Z,72.14
2023-01-03T20:58:46.121Z,71.05
2023-01-03T21:03:50.436Z,71.21
2023-01-03T21:08:58.100Z,71.79
2023-01-03T21:14:02.299Z,71.17
2023-01-03T21:19:09.117Z,70.66
2023-01-03T21:24:13.054Z,70.67
2023-01-03T21:29:16.221Z,70.49
2023-01-03T21:34:22.370Z,70.46
2023-01-03T21:39:25.263Z,70.09
2023-01-03T21:44:28.202Z,70.10
2023-01-03T21:49:32.549Z,69.37
2023-01-03T21:54:35.785Z,70.10
2023-01-03T21:59:38.868Z,70.90
2023-01-03T22:04:43.448Z,70.59
2023-01-03T22:10:03.881Z,70.68
2023-01-03T22:15:08.000Z,70.08
2023-01-03T22:20:15.036Z,70.42
2023-01-03T22:25:20.932Z,69.81
2023-01-03T22:30:24.795Z,70.89
2023-01-03T22:35:29.196Z,70.85
2023-01-03T22:40:32.165Z,70.40
2023-01-03T22:45:35.128Z,70.74
2023-01-03T22:50:40.672Z,70.38
2023-01-03T22:55:44.196Z,70.73
2023-01-03T23:00:47.253Z,71.18
2023-01-03T23:05:51.547Z,71.93
2023-01-03T23:11:14.489Z,71.26
2023-01-03T23:16:17.488Z,71.50
2023-01-03T23:21:21.808Z,71.92
2023-01-03T23:26:24.917Z,71.82
2023-01-03T23:31:28.487Z,71.16
2023-01-03T23:36:32.838Z,71.24
2023-01-03T23:41:35.816Z,78.58
2023-01-03T23:46:38.917Z,72.04
2023-01-03T23:51:43.485Z,71.52
2023-01-03T23:56:46.456Z,71.18
